createdAt,value
2023-02-16T00:01:53.422Z,22.88
2023-02-16T00:04:21.804Z,23.13
2023-02-16T00:06:49.482Z,21.60
2023-02-16T00:09:16.636Z,20.70
2023-02-16T00:11:43.723Z,24.58
2023-02-16T00:14:12.342Z,20.05
2023-02-16T00:16:39.059Z,21.17
2023-02-16T00:19:20.894Z,27.25
2023-02-16T00:21:47.843Z,21.67
2023-02-16T00:24:15.155Z,20.80
2023-02-16T00:26:42.722Z,25.63
2023-02-16T00:29:20.998Z,24.43
2023-02-16T00:31:48.039Z,21.30
2023-02-16T00:34:36.901Z,21.60
2023-02-16T00:37:05.407Z,26.10
2023-02-16T00:39:32.766Z,23.98
2023-02-16T00:42:01.709Z,22.60
2023-02-16T00:44:33.923Z,23.17
2023-02-16T00:47:04.217Z,20.67
2023-02-16T00:49:30.913Z,21.15
2023-02-16T00:51:57.844Z,22.13
2023-02-16T00:54:24.542Z,22.77
2023-02-16T00:56:51.278Z,18.85
2023-02-16T00:59:20.675Z,24.40
2023-02-16T01:01:49.331Z,21.80
2023-02-16T01:04:20.793Z,24.50
2023-02-16T01:06:47.451Z,22.40
2023-02-16T01:09:17.611Z,22.52
2023-02-16T01:11:44.271Z,26.02
2023-02-16T01:14:12.969Z,24.63
2023-02-16T01:16:42.486Z,25.15
2023-02-16T01:19:12.419Z,23.13
2023-02-16T01:21:39.294Z,22.73
2023-02-16T01:24:06.435Z,23.80
2023-02-16T01:26:39.642Z,26.05
2023-02-16T01:29:06.495Z,22.80
2023-02-16T01:31:33.329Z,20.77
2023-02-16T01:34:00.112Z,21.02
2023-02-16T01:36:31.429Z,24.42
2023-02-16T01:38:58.029Z,21.42
2023-02-16T01:41:38.804Z,25.55
2023-02-16T01:44:13.010Z,25.03
2023-02-16T01:46:46.011Z,20.08
2023-02-16T01:49:13.821Z,22.17
2023-02-16T01:51:51.772Z,23.23
2023-02-16T01:54:29.199Z,22.13
2023-02-16T01:57:00.104Z,23.37
2023-02-16T01:59:40.144Z,22.05
2023-02-16T02:02:14.634Z,24.48
2023-02-16T02:04:46.860Z,28.00
2023-02-16T02:07:25.568Z,22.02
2023-02-16T02:10:01.110Z,22.67
2023-02-16T02:12:34.590Z,23.33
2023-02-16T02:15:01.213Z,23.25
2023-02-16T02:17:28.841Z,19.65
2023-02-16T02:20:02.518Z,22.63
2023-02-16T02:23:05.654Z,21.90
2023-02-16T02:25:52.335Z,22.45
2023-02-16T02:28:29.135Z,21.15
2023-02-16T02:31:05.786Z,24.17
2023-02-16T02:33:46.888Z,24.80
2023-02-16T02:36:26.855Z,19.20
2023-02-16T02:39:03.420Z,22.38
2023-02-16T02:41:38.024Z,24.42
2023-02-16T02:44:08.785Z,20.85
2023-02-16T02:46:36.742Z,24.88
2023-02-16T02:49:03.759Z,23.73
2023-02-16T02:51:30.629Z,25.50
2023-02-16T02:54:03.060Z,23.85
2023-02-16T02:56:29.884Z,22.33
2023-02-16T02:59:00.600Z,21.98
2023-02-16T03:01:29.642Z,24.73
2023-02-16T03:03:57.802Z,22.30
2023-02-16T03:06:27.929Z,23.80
2023-02-16T03:08:59.713Z,24.95
2023-02-16T03:11:27.943Z,21.38
2023-02-16T03:13:59.274Z,23.70
2023-02-16T03:16:31.492Z,22.80
2023-02-16T03:18:59.198Z,25.42
2023-02-16T03:21:27.887Z,24.35
2023-02-16T03:23:56.112Z,20.40
2023-02-16T03:26:24.151Z,23.13
2023-02-16T03:28:51.844Z,22.33
2023-02-16T03:31:21.905Z,24.30
2023-02-16T03:33:51.651Z,24.90
2023-02-16T03:36:18.389Z,26.48
2023-02-16T03:38:45.194Z,23.23
2023-02-16T03:41:11.726Z,24.55
2023-02-16T03:43:38.321Z,20.50
2023-02-16T03:46:05.511Z,22.65
2023-02-16T03:48:32.126Z,20.85
2023-02-16T03:51:00.023Z,22.00
2023-02-16T03:53:26.829Z,23.00
2023-02-16T03:55:53.747Z,21.60
2023-02-16T03:58:24.145Z,23.27
2023-02-16T04:00:51.563Z,21.25
2023-02-16T04:03:18.438Z,20.00
2023-02-16T04:05:45.617Z,19.67
2023-02-16T04:08:13.620Z,21.35
2023-02-16T04:10:40.369Z,20.77
2023-02-16T04:13:07.390Z,20.60
2023-02-16T04:15:34.313Z,22.57
2023-02-16T04:18:01.260Z,19.00
2023-02-16T04:20:29.973Z,20.63
2023-02-16T04:22:57.002Z,20.30
2023-02-16T04:25:25.519Z,21.98
2023-02-16T04:27:52.590Z,25.90
2023-02-16T04:30:21.114Z,18.95
2023-02-16T04:32:48.294Z,25.05
2023-02-16T04:35:15.520Z,20.20
2023-02-16T04:37:42.389Z,22.23
2023-02-16T04:40:10.821Z,20.83
2023-02-16T04:42:39.049Z,23.35
2023-02-16T04:45:06.611Z,24.55
2023-02-16T04:47:33.541Z,21.83
2023-02-16T04:50:00.474Z,26.30
2023-02-16T04:52:27.219Z,31.50
2023-02-16T04:54:53.773Z,27.00
2023-02-16T04:57:20.509Z,24.60
2023-02-16T04:59:48.548Z,25.40
2023-02-16T05:02:15.195Z,24.27
2023-02-16T05:04:41.849Z,22.23
2023-02-16T05:07:11.316Z,22.75
2023-02-16T05:09:37.883Z,26.00
2023-02-16T05:12:04.572Z,21.17
2023-02-16T05:14:33.028Z,26.02
2023-02-16T05:17:01.051Z,26.07
2023-02-16T05:19:27.755Z,24.10
2023-02-16T05:21:54.708Z,22.88
2023-02-16T05:24:21.276Z,25.15
2023-02-16T05:26:47.849Z,21.33
2023-02-16T05:29:14.554Z,23.30
2023-02-16T05:31:41.238Z,22.23
2023-02-16T05:34:09.270Z,28.63
2023-02-16T05:36:36.138Z,22.17
2023-02-16T05:39:03.122Z,25.67
2023-02-16T05:41:29.868Z,23.47
2023-02-16T05:44:03.626Z,26.45
2023-02-16T05:46:32.641Z,23.70
2023-02-16T05:48:59.462Z,26.10
2023-02-16T05:51:27.980Z,23.30
2023-02-16T05:53:58.533Z,25.97
2023-02-16T05:56:27.692Z,25.83
2023-02-16T05:58:55.247Z,21.08
2023-02-16T06:01:22.204Z,23.23
2023-02-16T06:03:52.156Z,27.17
2023-02-16T06:06:19.061Z,19.93
2023-02-16T06:08:47.611Z,25.33
2023-02-16T06:11:14.438Z,24.13
2023-02-16T06:13:43.553Z,21.83
2023-02-16T06:16:10.259Z,25.30
2023-02-16T06:18:36.828Z,24.33
2023-02-16T06:21:04.031Z,26.85
2023-02-16T06:23:30.936Z,26.73
2023-02-16T06:25:58.968Z,23.05
2023-02-16T06:28:25.519Z,26.17
2023-02-16T06:30:53.291Z,22.43
2023-02-16T06:33:19.925Z,24.73
2023-02-16T06:35:46.481Z,23.25
2023-02-16T06:38:12.958Z,25.92
2023-02-16T06:40:39.580Z,21.48
2023-02-16T06:43:07.506Z,24.90
2023-02-16T06:45:34.187Z,19.98
2023-02-16T06:48:00.894Z,21.98
2023-02-16T06:50:27.735Z,20.88
2023-02-16T06:52:54.235Z,20.30
2023-02-16T06:55:21.065Z,20.43
2023-02-16T06:57:47.640Z,26.77
2023-02-16T07:00:16.964Z,21.75
2023-02-16T07:02:43.608Z,21.35
2023-02-16T07:05:10.115Z,26.63
2023-02-16T07:07:36.663Z,22.20
2023-02-16T07:10:04.064Z,23.83
2023-02-16T07:12:30.663Z,22.10
2023-02-16T07:14:57.254Z,23.15
2023-02-16T07:17:25.207Z,27.13
2023-02-16T07:19:51.845Z,20.50
2023-02-16T07:22:18.492Z,20.42
2023-02-16T07:24:45.110Z,21.42
2023-02-16T07:27:11.694Z,23.35
2023-02-16T07:29:38.258Z,24.02
2023-02-16T07:32:05.380Z,23.57
2023-02-16T07:34:33.419Z,22.13
2023-02-16T07:37:00.309Z,24.52
2023-02-16T07:39:26.957Z,21.25
2023-02-16T07:41:53.502Z,22.27
2023-02-16T07:44:20.280Z,21.67
2023-02-16T07:46:46.848Z,22.13
2023-02-16T07:49:13.469Z,23.00
2023-02-16T07:51:41.584Z,23.60
2023-02-16T07:54:08.123Z,25.10
2023-02-16T07:56:35.228Z,22.03
2023-02-16T07:59:03.897Z,25.60
2023-02-16T08:01:31.164Z,24.25
2023-02-16T08:03:58.080Z,21.02
2023-02-16T08:06:24.826Z,22.67
2023-02-16T08:08:52.757Z,21.53
2023-02-16T08:11:21.230Z,22.50
2023-02-16T08:13:48.401Z,22.65
2023-02-16T08:16:17.124Z,19.58
2023-02-16T08:18:43.997Z,23.15
2023-02-16T08:21:12.045Z,20.70
2023-02-16T08:23:38.643Z,21.70
2023-02-16T08:26:10.129Z,26.15
2023-02-16T08:28:37.026Z,23.48
2023-02-16T08:31:03.937Z,20.52
2023-02-16T08:33:30.616Z,21.83
2023-02-16T08:35:57.188Z,20.75
2023-02-16T08:38:23.878Z,22.45
2023-02-16T08:41:19.827Z,22.65
2023-02-16T08:43:49.805Z,20.77
2023-02-16T08:46:17.569Z,21.97
2023-02-16T08:48:44.201Z,19.25
2023-02-16T08:51:14.230Z,18.90
2023-02-16T08:53:40.917Z,21.65
2023-02-16T08:56:07.405Z,21.95
2023-02-16T08:58:33.991Z,20.47
2023-02-16T09:01:05.488Z,22.60
2023-02-16T09:03:32.882Z,20.52
2023-02-16T09:06:02.634Z,22.52
2023-02-16T09:08:29.663Z,20.25
2023-02-16T09:10:56.267Z,20.10
2023-02-16T09:13:22.992Z,20.27
2023-02-16T09:15:49.615Z,23.25
2023-02-16T09:18:17.538Z,22.08
2023-02-16T09:20:46.936Z,25.20
2023-02-16T09:23:14.290Z,19.53
2023-02-16T09:25:40.918Z,21.10
2023-02-16T09:28:07.771Z,21.13
2023-02-16T09:30:34.460Z,18.88
2023-02-16T09:33:01.743Z,19.92
2023-02-16T09:35:29.837Z,17.67
2023-02-16T09:37:57.035Z,18.67
2023-02-16T09:40:24.279Z,17.98
2023-02-16T09:43:03.339Z,17.65
2023-02-16T09:45:32.090Z,23.70
2023-02-16T09:47:58.730Z,20.07
2023-02-16T09:50:52.131Z,18.67
2023-02-16T09:53:21.778Z,17.08
2023-02-16T09:55:54.551Z,18.00
2023-02-16T09:58:25.751Z,20.48
2023-02-16T10:00:55.749Z,18.33
2023-02-16T10:03:40.839Z,24.70
2023-02-16T10:06:41.967Z,20.85
2023-02-16T10:09:12.672Z,22.67
2023-02-16T10:11:43.800Z,20.65
2023-02-16T10:14:18.374Z,19.37
2023-02-16T10:16:52.706Z,19.98
2023-02-16T10:19:24.110Z,23.95
2023-02-16T10:21:56.301Z,24.05
2023-02-16T10:24:26.241Z,17.75
2023-02-16T10:26:59.772Z,22.80
2023-02-16T10:29:26.419Z,23.35
2023-02-16T10:32:05.127Z,19.75
2023-02-16T10:34:45.350Z,20.42
2023-02-16T10:37:28.958Z,20.75
2023-02-16T10:40:10.598Z,21.73
2023-02-16T10:42:42.130Z,20.33
2023-02-16T10:45:20.357Z,23.15
2023-02-16T10:47:47.020Z,21.13
2023-02-16T10:50:20.127Z,28.30
2023-02-16T10:52:46.940Z,22.53
2023-02-16T10:55:16.070Z,21.25
2023-02-16T10:57:42.790Z,19.67
2023-02-16T11:00:16.487Z,21.23
2023-02-16T11:02:46.356Z,20.05
2023-02-16T11:05:31.609Z,21.77
2023-02-16T11:08:00.045Z,23.83
2023-02-16T11:10:35.590Z,20.73
2023-02-16T11:13:03.052Z,22.05
2023-02-16T11:15:30.708Z,20.88
2023-02-16T11:18:01.063Z,19.47
2023-02-16T11:20:30.362Z,22.92
2023-02-16T11:23:13.330Z,19.60
2023-02-16T11:25:41.443Z,27.25
2023-02-16T11:28:08.274Z,19.98
2023-02-16T11:30:37.112Z,19.20
2023-02-16T11:33:05.964Z,20.25
2023-02-16T11:35:41.879Z,21.35
2023-02-16T11:38:26.453Z,18.88
2023-02-16T11:40:56.016Z,27.00
2023-02-16T11:43:27.455Z,22.03
2023-02-16T11:46:02.159Z,17.85
2023-02-16T11:48:31.460Z,19.70
2023-02-16T11:51:02.510Z,22.88
2023-02-16T11:53:33.152Z,20.70
2023-02-16T11:56:16.914Z,20.20
2023-02-16T11:58:43.610Z,21.65
2023-02-16T12:01:22.324Z,18.17
2023-02-16T12:04:00.480Z,20.90
2023-02-16T12:06:37.569Z,20.50
2023-02-16T12:09:18.780Z,21.43
2023-02-16T12:11:57.592Z,20.05
2023-02-16T12:14:36.479Z,24.75
2023-02-16T12:17:17.257Z,19.85
2023-02-16T12:19:45.923Z,18.98
2023-02-16T12:22:28.052Z,19.03
2023-02-16T12:25:12.511Z,23.13
2023-02-16T12:27:49.212Z,19.00
2023-02-16T12:30:31.522Z,23.48
2023-02-16T12:33:14.162Z,21.95
2023-02-16T12:36:10.101Z,21.80
2023-02-16T12:38:48.377Z,20.48
2023-02-16T12:41:26.465Z,22.33
2023-02-16T12:44:02.421Z,23.67
2023-02-16T12:46:35.833Z,26.45
2023-02-16T12:49:16.714Z,21.53
2023-02-16T12:51:47.932Z,20.75
2023-02-16T12:54:19.381Z,21.45
2023-02-16T12:56:52.084Z,26.13
2023-02-16T12:59:30.619Z,22.48
2023-02-16T13:02:00.643Z,21.77
2023-02-16T13:04:37.577Z,22.05
2023-02-16T13:07:11.950Z,24.10
2023-02-16T13:09:44.118Z,20.40
2023-02-16T13:12:20.838Z,25.63
2023-02-16T13:14:58.357Z,20.53
2023-02-16T13:17:33.095Z,21.42
2023-02-16T13:19:59.690Z,22.27
2023-02-16T13:22:46.611Z,19.80
2023-02-16T13:25:31.264Z,22.25
2023-02-16T13:28:09.369Z,21.83
2023-02-16T13:31:09.174Z,21.48
2023-02-16T13:33:51.381Z,21.45
2023-02-16T13:36:33.246Z,22.45
2023-02-16T13:39:20.666Z,23.83
2023-02-16T13:42:05.536Z,22.37
2023-02-16T13:44:37.436Z,21.17
2023-02-16T13:47:07.516Z,25.23
2023-02-16T13:49:36.613Z,20.73
2023-02-16T13:52:08.799Z,22.02
2023-02-16T13:54:38.138Z,21.03
2023-02-16T13:57:04.816Z,22.92
2023-02-16T14:00:00.457Z,21.48
2023-02-16T14:02:56.406Z,24.67
2023-02-16T14:05:27.033Z,24.63
2023-02-16T14:11:02.245Z,21.25
2023-02-16T14:13:32.173Z,26.38
2023-02-16T14:16:05.490Z,23.73
2023-02-16T14:18:42.042Z,23.48
2023-02-16T14:21:18.605Z,22.30
2023-02-16T14:23:53.947Z,23.33
2023-02-16T14:26:20.809Z,21.90
2023-02-16T14:29:10.862Z,25.95
2023-02-16T14:31:47.199Z,20.35
2023-02-16T14:34:21.384Z,22.80
2023-02-16T14:37:26.412Z,29.27
2023-02-16T14:40:07.461Z,23.05
2023-02-16T14:42:36.505Z,25.83
2023-02-16T14:45:29.993Z,24.10
2023-02-16T14:48:10.777Z,21.07
2023-02-16T14:50:59.635Z,25.23
2023-02-16T14:54:02.606Z,20.92
2023-02-16T14:56:40.283Z,24.75
2023-02-16T14:59:17.499Z,23.92
2023-02-16T15:01:45.753Z,20.90
2023-02-16T15:04:12.539Z,17.00
2023-02-16T15:06:44.359Z,21.83
2023-02-16T15:09:16.827Z,24.58
2023-02-16T15:11:49.812Z,21.60
2023-02-16T15:14:16.495Z,21.87
2023-02-16T15:16:44.257Z,19.95
2023-02-16T15:19:17.535Z,19.38
2023-02-16T15:21:45.554Z,20.30
2023-02-16T15:24:22.441Z,19.63
2023-02-16T15:26:55.070Z,18.60
2023-02-16T15:29:24.221Z,18.05
2023-02-16T15:31:50.908Z,24.17
2023-02-16T15:34:27.364Z,19.40
2023-02-16T15:36:56.494Z,18.20
2023-02-16T15:39:37.902Z,19.93
2023-02-16T15:42:19.810Z,17.05
2023-02-16T15:44:46.885Z,17.75
2023-02-16T15:47:15.511Z,19.88
2023-02-16T15:49:42.536Z,22.98
2023-02-16T15:52:15.563Z,22.07
2023-02-16T15:54:43.272Z,25.83
2023-02-16T15:57:18.448Z,22.90
2023-02-16T15:59:47.713Z,19.27
2023-02-16T16:02:17.087Z,18.48
2023-02-16T16:04:47.269Z,20.47
2023-02-16T16:07:19.168Z,16.55
2023-02-16T16:09:46.457Z,17.90
2023-02-16T16:12:15.995Z,18.50
2023-02-16T16:14:49.098Z,19.02
2023-02-16T16:17:20.826Z,21.10
2023-02-16T16:19:47.413Z,18.20
2023-02-16T16:22:31.142Z,22.48
2023-02-16T16:24:57.717Z,18.98
2023-02-16T16:27:30.608Z,19.80
2023-02-16T16:30:11.587Z,21.23
2023-02-16T16:32:38.677Z,21.42
2023-02-16T16:35:19.303Z,21.08
2023-02-16T16:37:51.131Z,18.27
2023-02-16T16:40:24.344Z,21.30
2023-02-16T16:43:09.267Z,17.73
2023-02-16T16:45:37.520Z,18.75
2023-02-16T16:48:10.145Z,20.30
2023-02-16T16:50:39.715Z,18.40
2023-02-16T16:53:54.191Z,17.35
2023-02-16T16:56:22.381Z,24.97
2023-02-16T16:58:49.968Z,23.63
2023-02-16T17:01:16.886Z,17.70
2023-02-16T17:03:43.799Z,21.77
2023-02-16T17:06:10.959Z,19.90
2023-02-16T17:08:37.569Z,19.87
2023-02-16T17:11:04.525Z,20.58
2023-02-16T17:13:32.439Z,18.75
2023-02-16T17:16:02.663Z,17.95
2023-02-16T17:18:29.383Z,19.95
2023-02-16T17:20:56.155Z,14.93
2023-02-16T17:23:23.017Z,21.52
2023-02-16T17:25:50.020Z,21.98
2023-02-16T17:28:17.992Z,18.92
2023-02-16T17:30:46.244Z,20.23
2023-02-16T17:33:12.882Z,20.03
2023-02-16T17:35:42.302Z,18.90
2023-02-16T17:38:09.901Z,20.98
2023-02-16T17:40:37.159Z,21.58
2023-02-16T17:43:14.058Z,18.15
2023-02-16T17:45:43.717Z,16.17
2023-02-16T17:48:15.693Z,16.63
2023-02-16T17:50:42.277Z,15.00
2023-02-16T17:53:13.506Z,20.25
2023-02-16T17:55:53.185Z,13.05
2023-02-16T17:58:44.679Z,15.83
2023-02-16T18:04:54.710Z,14.98
2023-02-16T21:01:40.759Z,12.20
2023-02-16T21:04:10.027Z,12.10
2023-02-16T21:06:37.477Z,8.77
2023-02-16T21:09:05.285Z,10.32
2023-02-16T21:11:32.190Z,10.43
2023-02-16T21:14:00.225Z,10.18
2023-02-16T21:16:26.917Z,11.68
2023-02-16T21:18:54.041Z,14.43
2023-02-16T21:21:23.153Z,10.05
2023-02-16T21:23:51.927Z,12.00
2023-02-16T21:26:19.769Z,14.35
2023-02-16T21:28:46.654Z,12.27
2023-02-16T21:31:16.937Z,12.73
2023-02-16T21:33:43.738Z,11.88
2023-02-16T21:36:12.087Z,13.32
2023-02-16T21:38:40.663Z,13.65
2023-02-16T21:41:09.276Z,12.25
2023-02-16T21:43:35.858Z,12.93
2023-02-16T21:46:02.594Z,12.80
2023-02-16T21:48:30.587Z,13.95
2023-02-16T21:51:01.526Z,14.15
2023-02-16T21:53:29.539Z,13.35
2023-02-16T21:55:57.968Z,11.07
2023-02-16T21:58:25.372Z,13.27
2023-02-16T22:00:52.405Z,14.27
2023-02-16T22:03:19.642Z,13.38
2023-02-16T22:05:47.834Z,13.18
2023-02-16T22:08:14.745Z,16.10
2023-02-16T22:10:41.383Z,11.85
2023-02-16T22:13:07.998Z,12.73
2023-02-16T22:15:35.783Z,15.52
2023-02-16T22:18:02.556Z,13.82
2023-02-16T22:20:29.235Z,17.33
2023-02-16T22:22:57.168Z,15.10
2023-02-16T22:25:23.829Z,10.98
2023-02-16T22:27:50.591Z,14.48
2023-02-16T22:30:17.597Z,13.63
2023-02-16T22:32:44.238Z,14.40
2023-02-16T22:35:10.832Z,10.77
2023-02-16T22:37:37.464Z,14.32
2023-02-16T22:40:07.144Z,15.90
2023-02-16T22:42:34.140Z,12.43
2023-02-16T22:45:00.685Z,14.57
2023-02-16T22:47:27.264Z,12.18
2023-02-16T22:49:53.863Z,12.02
2023-02-16T22:52:20.931Z,12.02
2023-02-16T22:54:49.830Z,13.75
2023-02-16T22:57:18.082Z,15.87
2023-02-16T22:59:44.730Z,15.07
2023-02-16T23:02:11.297Z,12.52
2023-02-16T23:04:37.940Z,9.13
2023-02-16T23:07:04.413Z,18.13
2023-02-16T23:09:31.121Z,12.57
2023-02-16T23:11:57.696Z,11.90
2023-02-16T23:14:26.269Z,11.45
2023-02-16T23:16:55.325Z,11.68
2023-02-16T23:19:23.906Z,12.90
2023-02-16T23:21:51.476Z,8.50
2023-02-16T23:24:20.411Z,12.38
2023-02-16T23:26:47.502Z,16.08
2023-02-16T23:29:14.737Z,9.80
2023-02-16T23:31:44.874Z,12.80
2023-02-16T23:34:12.110Z,12.80
2023-02-16T23:36:39.804Z,10.63
2023-02-16T23:39:09.001Z,10.65
2023-02-16T23:41:36.344Z,11.25
2023-02-16T23:44:03.443Z,10.60
2023-02-16T23:46:30.310Z,10.77
2023-02-16T23:48:58.342Z,10.98
2023-02-16T23:51:25.049Z,10.70
2023-02-16T23:53:51.841Z,15.88
2023-02-16T23:56:20.416Z,9.32
2023-02-16T23:58:47.456Z,13.10
